KPSP

Palm Springs International Airport

Palm Springs, California, USA
KPSP 251120Z 2512/2612 VRB04KT P6SM SKC FM251900 10008KT P6SM SKC FM260300 33007KT P6SM SKC FM260600 VRB05KT P6SM SKC
Issued Valid From Valid To
Sep-25 @ 11:20 UTC
(6 hours ago)
Sep-25 @ 12:00 UTC
(6 hours ago)
Sep-26 @ 12:00 UTC
(in 18 hours)
Sep-25 @ 12:00 to Sep-25 @ 19:00
KPSP 251120Z 2512/2612 VRB04KT P6SM SKC
Wind Visibility Clouds
Variable at 4 knots Greater than 6 miles
  • Clear skies
From Sep-25 @ 19:00 to Sep-26 @ 03:00
FM251900 10008KT P6SM SKC
Wind Visibility Clouds
100° at 8 knots Greater than 6 miles
  • Clear skies
From Sep-26 @ 03:00 to Sep-26 @ 06:00
FM260300 33007KT P6SM SKC
Wind Visibility Clouds
330° at 7 knots Greater than 6 miles
  • Clear skies
From Sep-26 @ 06:00 to Sep-26 @ 12:00
FM260600 VRB05KT P6SM SKC
Wind Visibility Clouds
Variable at 5 knots Greater than 6 miles
  • Clear skies
KPSP 251120Z 2512/2612 VRB04KT P6SM SKC FM251900 10008KT P6SM SKC FM260300 33007KT P6SM SKC FM260600 VRB05KT P6SM SKC
Issued Sep-25 @ 11:20 UTC
(6 hours ago)
Valid From Sep-25 @ 12:00 UTC
(6 hours ago)
Valid To Sep-26 @ 12:00 UTC
(in 18 hours)
Sep-25 @ 12:00 - Sep-25 @ 19:00
Wind Visibility
Variable at 4 knots Greater than 6 miles
Clouds
  • Clear skies
From Sep-25 @ 19:00 - Sep-26 @ 03:00
Wind Visibility
100° at 8 knots Greater than 6 miles
Clouds
  • Clear skies
From Sep-26 @ 03:00 - Sep-26 @ 06:00
Wind Visibility
330° at 7 knots Greater than 6 miles
Clouds
  • Clear skies
From Sep-26 @ 06:00 - Sep-26 @ 12:00
Wind Visibility
Variable at 5 knots Greater than 6 miles
Clouds
  • Clear skies